createdAt,value
2022-10-05T03:05:03.712Z,11.65
2022-10-05T03:10:10.336Z,12.82
2022-10-05T03:15:23.716Z,11.73
2022-10-05T03:20:36.429Z,12.25
2022-10-05T03:26:05.428Z,14.07
2022-10-05T03:31:18.309Z,12.32
2022-10-05T03:36:29.685Z,14.30
2022-10-05T03:41:36.665Z,13.65
2022-10-05T03:46:50.114Z,14.00
2022-10-05T03:51:59.700Z,15.00
2022-10-05T03:57:08.451Z,15.27
2022-10-05T04:02:20.871Z,16.55
2022-10-05T04:07:41.325Z,14.85
2022-10-05T04:12:48.123Z,16.85
2022-10-05T04:17:54.462Z,17.52
2022-10-05T04:23:04.925Z,19.67
2022-10-05T04:28:11.776Z,18.20
2022-10-05T04:33:13.536Z,18.75
2022-10-05T04:38:28.177Z,20.67
2022-10-05T04:43:47.677Z,19.40
2022-10-05T04:49:13.717Z,24.48
2022-10-05T04:54:24.566Z,19.58
2022-10-05T05:00:19.096Z,21.87
2022-10-05T05:05:58.740Z,23.90
2022-10-05T05:11:17.405Z,25.48
2022-10-05T05:16:31.561Z,23.45
2022-10-05T05:21:42.298Z,21.73
2022-10-05T05:27:09.371Z,19.95
2022-10-05T05:32:23.204Z,18.12
2022-10-05T05:37:32.182Z,16.83
2022-10-05T05:42:44.171Z,16.65
2022-10-05T05:47:51.722Z,17.10
2022-10-05T05:52:58.498Z,16.10
2022-10-05T05:58:09.086Z,16.17
2022-10-05T06:03:16.639Z,15.27
2022-10-05T06:08:27.692Z,16.55
2022-10-05T06:13:38.476Z,17.73
2022-10-05T06:18:44.610Z,18.08
2022-10-05T06:23:51.769Z,19.10
2022-10-05T06:29:00.644Z,21.50
2022-10-05T06:34:13.336Z,22.33
2022-10-05T06:39:36.142Z,23.50
2022-10-05T06:44:48.444Z,22.70
2022-10-05T06:49:58.051Z,23.60
2022-10-05T06:55:14.396Z,22.67
2022-10-05T07:00:19.952Z,22.50
2022-10-05T07:05:45.100Z,21.87
2022-10-05T07:10:58.853Z,21.65
2022-10-05T07:16:09.015Z,22.60
2022-10-05T07:21:18.551Z,25.45
2022-10-05T07:26:26.757Z,24.75
2022-10-05T07:31:36.281Z,23.38
2022-10-05T07:36:44.617Z,24.48
2022-10-05T07:41:51.541Z,25.58
2022-10-05T07:46:58.464Z,24.05
2022-10-05T07:52:03.042Z,25.90
2022-10-05T07:57:19.516Z,28.40
2022-10-05T08:02:26.900Z,28.05
2022-10-05T08:07:31.685Z,26.35
2022-10-05T08:12:41.233Z,27.05
2022-10-05T08:17:51.726Z,26.27
2022-10-05T08:23:00.187Z,27.33
2022-10-05T08:28:09.971Z,28.55
2022-10-05T08:33:16.899Z,28.77
2022-10-05T08:38:24.287Z,26.02
2022-10-05T08:43:47.501Z,28.42
2022-10-05T08:49:35.194Z,28.77
2022-10-05T08:54:43.328Z,26.77
2022-10-05T09:00:05.894Z,28.58
2022-10-05T09:05:32.965Z,28.05
2022-10-05T09:11:04.910Z,27.58
2022-10-05T09:16:31.257Z,26.52
2022-10-05T09:21:40.823Z,26.45
2022-10-05T09:26:49.944Z,25.70
2022-10-05T09:32:15.670Z,27.37
2022-10-05T09:37:42.632Z,29.10
2022-10-05T09:43:08.277Z,30.85
2022-10-05T09:48:43.824Z,32.20
2022-10-05T09:54:27.080Z,34.67
2022-10-05T10:00:02.469Z,36.33
2022-10-05T10:05:25.414Z,40.15
2022-10-05T10:10:53.028Z,34.08
2022-10-05T10:16:12.371Z,29.77
2022-10-05T10:21:31.466Z,22.17
2022-10-05T10:26:57.959Z,17.35
2022-10-05T10:32:18.664Z,16.67
2022-10-05T10:37:59.725Z,14.87
2022-10-05T10:43:27.172Z,15.43
2022-10-05T10:48:50.891Z,15.60
2022-10-05T10:54:28.436Z,14.68
2022-10-05T11:00:05.565Z,11.90
2022-10-05T11:05:31.503Z,11.50
2022-10-05T11:11:15.584Z,11.40
2022-10-05T11:16:48.066Z,9.88
2022-10-05T11:22:13.043Z,9.57
2022-10-05T11:27:48.343Z,9.60
2022-10-05T11:33:37.898Z,9.90
2022-10-05T11:39:16.622Z,8.88
2022-10-05T11:45:09.157Z,8.90
2022-10-05T11:50:20.183Z,8.60
2022-10-05T11:55:29.856Z,8.73
2022-10-05T12:00:37.195Z,9.45
2022-10-05T12:05:48.327Z,0.35
2022-10-05T12:11:05.424Z,55.10
2022-10-05T12:16:16.411Z,9.05
2022-10-05T12:21:27.474Z,7.82
2022-10-05T12:26:34.893Z,9.02
2022-10-05T12:31:45.727Z,9.10
2022-10-05T12:37:08.275Z,9.40
2022-10-05T12:42:22.513Z,8.65
2022-10-05T12:47:34.020Z,8.82
2022-10-05T12:52:50.161Z,8.65
2022-10-05T12:58:03.303Z,8.48
2022-10-05T13:03:15.290Z,7.93
2022-10-05T13:08:26.041Z,8.73
2022-10-05T13:13:41.025Z,9.27
2022-10-05T13:18:54.979Z,8.55
2022-10-05T13:24:04.071Z,9.00
2022-10-05T13:29:16.535Z,9.30
2022-10-05T13:34:27.862Z,8.90
2022-10-05T13:45:20.161Z,8.53
2022-10-05T13:50:28.529Z,9.23
2022-10-05T13:55:45.329Z,9.50
2022-10-05T14:00:51.291Z,8.13
2022-10-05T14:05:55.964Z,8.52
2022-10-05T14:10:57.830Z,8.68
2022-10-05T14:16:20.411Z,7.82
2022-10-05T14:21:24.136Z,8.65
2022-10-05T14:26:34.320Z,8.40
2022-10-05T14:31:46.649Z,8.27
2022-10-05T14:36:56.169Z,8.32
2022-10-05T14:42:12.181Z,8.15
2022-10-05T14:47:22.090Z,8.35
2022-10-05T14:52:31.070Z,8.40
2022-10-05T14:57:41.478Z,7.93
2022-10-05T15:03:01.660Z,8.82
2022-10-05T15:08:15.746Z,8.38
2022-10-05T15:24:23.232Z,7.25
2022-10-05T15:29:42.764Z,8.10
2022-10-05T15:35:12.500Z,8.13
2022-10-05T15:40:27.869Z,7.85
2022-10-05T15:50:51.858Z,7.62
2022-10-05T15:56:03.131Z,8.07
2022-10-05T16:01:10.514Z,7.37
2022-10-05T16:06:24.795Z,8.57
2022-10-05T16:11:59.235Z,7.90
2022-10-05T16:17:20.826Z,8.07
2022-10-05T16:22:31.355Z,7.82
2022-10-05T16:27:46.675Z,7.95
2022-10-05T16:33:02.380Z,8.50
2022-10-05T16:38:18.513Z,8.40
2022-10-05T16:43:36.517Z,8.15
2022-10-05T16:48:50.100Z,8.60
2022-10-05T16:54:01.932Z,8.57
2022-10-05T16:59:23.953Z,8.70
2022-10-05T17:10:15.471Z,8.80
2022-10-05T17:15:33.637Z,10.27
2022-10-05T17:20:44.268Z,9.23
2022-10-05T17:25:52.519Z,9.13
2022-10-05T17:31:13.656Z,9.20
2022-10-05T17:36:18.076Z,8.75
2022-10-05T17:41:24.965Z,9.43
2022-10-05T17:46:40.633Z,9.10
2022-10-05T17:52:00.479Z,9.00
2022-10-05T17:57:18.980Z,9.60
2022-10-05T18:02:24.580Z,9.52
2022-10-05T18:07:27.163Z,9.40
2022-10-05T18:12:45.270Z,8.65
2022-10-05T18:17:50.883Z,7.20
2022-10-05T18:22:54.347Z,6.45
2022-10-05T18:28:07.188Z,6.90
2022-10-05T18:33:45.633Z,6.68
2022-10-05T18:38:55.890Z,7.22
2022-10-05T18:44:08.662Z,7.68
2022-10-05T18:49:31.132Z,7.47
2022-10-05T18:54:43.793Z,7.32
2022-10-05T18:59:52.824Z,7.72
2022-10-05T19:05:23.584Z,7.40
2022-10-05T19:10:39.024Z,7.30
2022-10-05T19:15:48.586Z,6.68
2022-10-05T19:20:58.666Z,6.78
2022-10-05T19:26:12.994Z,7.43
2022-10-05T19:31:26.031Z,7.15
2022-10-05T19:36:45.208Z,7.40
2022-10-05T19:42:06.764Z,7.15
2022-10-05T19:47:18.599Z,7.30
2022-10-05T19:52:26.722Z,7.07
2022-10-05T19:57:28.457Z,7.30
2022-10-05T20:02:30.232Z,7.15
2022-10-05T20:07:33.494Z,7.25
2022-10-05T20:12:47.602Z,7.65
2022-10-05T20:17:49.316Z,7.43
2022-10-05T20:22:52.391Z,7.55
2022-10-05T20:27:55.512Z,7.57
2022-10-05T20:32:58.753Z,7.03
2022-10-05T20:38:01.833Z,7.07
2022-10-05T20:43:03.608Z,7.90
2022-10-05T20:48:05.376Z,7.35
2022-10-05T20:53:11.855Z,7.62
2022-10-05T20:58:13.928Z,7.30
2022-10-05T21:03:15.691Z,8.30
2022-10-05T21:08:18.857Z,8.52
2022-10-05T21:13:20.611Z,8.13
2022-10-05T21:18:22.371Z,7.00
2022-10-05T21:23:25.462Z,7.35
2022-10-05T21:28:28.079Z,9.02
2022-10-05T21:33:30.540Z,7.95
2022-10-05T21:38:34.009Z,7.68
2022-10-05T21:43:35.991Z,8.38
2022-10-05T21:48:39.287Z,9.00
2022-10-05T21:53:45.804Z,8.73
2022-10-05T21:58:48.087Z,8.52
2022-10-05T22:03:49.847Z,8.48
2022-10-05T22:08:53.024Z,7.65
2022-10-05T22:13:55.600Z,8.60
2022-10-05T22:18:57.495Z,8.88
2022-10-05T22:24:00.551Z,8.57
2022-10-05T22:29:03.715Z,9.63
2022-10-05T22:34:05.577Z,8.95
2022-10-05T22:39:08.724Z,9.40
2022-10-05T22:44:10.418Z,9.70
2022-10-05T22:49:12.102Z,7.37
2022-10-05T22:54:15.287Z,6.62
2022-10-05T22:59:16.969Z,6.97
2022-10-05T23:04:18.620Z,6.45
2022-10-05T23:09:21.735Z,6.20
2022-10-05T23:14:23.660Z,6.03
2022-10-05T23:19:25.446Z,6.15
2022-10-05T23:24:28.607Z,6.65
2022-10-05T23:29:30.320Z,11.23
2022-10-05T23:34:32.032Z,7.87
2022-10-05T23:39:39.352Z,8.05
2022-10-05T23:44:41.193Z,8.75
2022-10-05T23:49:42.844Z,8.30
2022-10-05T23:54:46.005Z,8.40
